sensor_id;sensor_type;location;lat;lon;timestamp;P1;durP1;ratioP1;P2;durP2;ratioP2
3643;SDS011;1838;50.742;7.158;2024-02-15T00:01:20;6.20;;;3.73;;
3643;SDS011;1838;50.742;7.158;2024-02-15T00:03:46;3.37;;;3.03;;
3643;SDS011;1838;50.742;7.158;2024-02-15T00:06:13;3.17;;;2.60;;
3643;SDS011;1838;50.742;7.158;2024-02-15T00:08:39;7.50;;;3.33;;
3643;SDS011;1838;50.742;7.158;2024-02-15T00:11:04;4.00;;;3.63;;
3643;SDS011;1838;50.742;7.158;2024-02-15T00:13:30;7.50;;;3.50;;
3643;SDS011;1838;50.742;7.158;2024-02-15T00:15:58;3.33;;;3.03;;
3643;SDS011;1838;50.742;7.158;2024-02-15T00:18:24;5.77;;;3.53;;
3643;SDS011;1838;50.742;7.158;2024-02-15T00:20:50;4.40;;;3.20;;
3643;SDS011;1838;50.742;7.158;2024-02-15T00:23:15;4.63;;;3.10;;
3643;SDS011;1838;50.742;7.158;2024-02-15T00:25:42;5.07;;;3.80;;
3643;SDS011;1838;50.742;7.158;2024-02-15T00:28:09;10.63;;;4.60;;
3643;SDS011;1838;50.742;7.158;2024-02-15T00:30:38;8.60;;;3.50;;
3643;SDS011;1838;50.742;7.158;2024-02-15T00:33:03;7.30;;;3.83;;
3643;SDS011;1838;50.742;7.158;2024-02-15T00:35:29;6.37;;;3.80;;
3643;SDS011;1838;50.742;7.158;2024-02-15T00:37:54;6.60;;;4.13;;
3643;SDS011;1838;50.742;7.158;2024-02-15T00:40:20;7.20;;;4.60;;
3643;SDS011;1838;50.742;7.158;2024-02-15T00:42:46;6.77;;;4.77;;
3643;SDS011;1838;50.742;7.158;2024-02-15T00:45:11;9.00;;;5.47;;
3643;SDS011;1838;50.742;7.158;2024-02-15T00:47:37;7.83;;;4.67;;
3643;SDS011;1838;50.742;7.158;2024-02-15T00:50:03;7.87;;;4.23;;
3643;SDS011;1838;50.742;7.158;2024-02-15T00:52:29;11.17;;;5.87;;
3643;SDS011;1838;50.742;7.158;2024-02-15T00:54:55;8.03;;;4.13;;
3643;SDS011;1838;50.742;7.158;2024-02-15T00:57:21;7.30;;;3.43;;
3643;SDS011;1838;50.742;7.158;2024-02-15T00:59:47;8.93;;;4.90;;
3643;SDS011;1838;50.742;7.158;2024-02-15T01:02:13;12.33;;;6.33;;
3643;SDS011;1838;50.742;7.158;2024-02-15T01:04:39;8.50;;;6.33;;
3643;SDS011;1838;50.742;7.158;2024-02-15T01:07:04;13.10;;;6.80;;
3643;SDS011;1838;50.742;7.158;2024-02-15T01:09:30;8.03;;;6.50;;
3643;SDS011;1838;50.742;7.158;2024-02-15T01:11:55;13.10;;;7.00;;
3643;SDS011;1838;50.742;7.158;2024-02-15T01:14:21;10.00;;;5.47;;
3643;SDS011;1838;50.742;7.158;2024-02-15T01:16:47;13.40;;;5.30;;
3643;SDS011;1838;50.742;7.158;2024-02-15T01:19:12;10.20;;;6.07;;
3643;SDS011;1838;50.742;7.158;2024-02-15T01:21:38;10.00;;;5.57;;
3643;SDS011;1838;50.742;7.158;2024-02-15T01:24:04;6.43;;;5.13;;
3643;SDS011;1838;50.742;7.158;2024-02-15T01:26:31;4.57;;;4.10;;
3643;SDS011;1838;50.742;7.158;2024-02-15T01:28:57;13.50;;;5.10;;
3643;SDS011;1838;50.742;7.158;2024-02-15T01:31:23;8.27;;;4.10;;
3643;SDS011;1838;50.742;7.158;2024-02-15T01:33:48;7.80;;;3.83;;
3643;SDS011;1838;50.742;7.158;2024-02-15T01:36:14;6.77;;;3.60;;
3643;SDS011;1838;50.742;7.158;2024-02-15T01:38:43;9.10;;;3.70;;
3643;SDS011;1838;50.742;7.158;2024-02-15T01:41:10;11.47;;;4.87;;
3643;SDS011;1838;50.742;7.158;2024-02-15T01:43:35;7.17;;;5.40;;
3643;SDS011;1838;50.742;7.158;2024-02-15T01:46:02;10.77;;;6.00;;
3643;SDS011;1838;50.742;7.158;2024-02-15T01:48:33;13.67;;;7.33;;
3643;SDS011;1838;50.742;7.158;2024-02-15T01:51:01;9.33;;;5.90;;
3643;SDS011;1838;50.742;7.158;2024-02-15T01:53:28;8.70;;;6.50;;
3643;SDS011;1838;50.742;7.158;2024-02-15T01:55:55;10.50;;;5.30;;
3643;SDS011;1838;50.742;7.158;2024-02-15T01:58:22;10.43;;;5.20;;
3643;SDS011;1838;50.742;7.158;2024-02-15T02:00:50;10.33;;;5.37;;
3643;SDS011;1838;50.742;7.158;2024-02-15T02:03:16;10.20;;;5.50;;
3643;SDS011;1838;50.742;7.158;2024-02-15T02:05:42;8.70;;;5.63;;
3643;SDS011;1838;50.742;7.158;2024-02-15T02:08:07;8.90;;;6.50;;
3643;SDS011;1838;50.742;7.158;2024-02-15T02:10:36;9.93;;;6.90;;
3643;SDS011;1838;50.742;7.158;2024-02-15T02:13:02;6.67;;;6.07;;
3643;SDS011;1838;50.742;7.158;2024-02-15T02:15:28;8.37;;;5.90;;
3643;SDS011;1838;50.742;7.158;2024-02-15T02:17:56;7.80;;;5.80;;
3643;SDS011;1838;50.742;7.158;2024-02-15T02:20:23;10.97;;;6.30;;
3643;SDS011;1838;50.742;7.158;2024-02-15T02:22:50;11.10;;;5.40;;
3643;SDS011;1838;50.742;7.158;2024-02-15T02:25:21;5.50;;;4.63;;
3643;SDS011;1838;50.742;7.158;2024-02-15T02:27:51;4.73;;;4.33;;
3643;SDS011;1838;50.742;7.158;2024-02-15T02:30:17;14.47;;;4.70;;
3643;SDS011;1838;50.742;7.158;2024-02-15T02:32:44;5.23;;;4.07;;
3643;SDS011;1838;50.742;7.158;2024-02-15T02:35:12;5.17;;;3.90;;
3643;SDS011;1838;50.742;7.158;2024-02-15T02:37:38;5.37;;;3.30;;
3643;SDS011;1838;50.742;7.158;2024-02-15T02:40:05;6.40;;;3.70;;
3643;SDS011;1838;50.742;7.158;2024-02-15T02:42:33;5.73;;;3.40;;
3643;SDS011;1838;50.742;7.158;2024-02-15T02:45:12;4.20;;;3.70;;
3643;SDS011;1838;50.742;7.158;2024-02-15T02:47:37;7.80;;;4.00;;
3643;SDS011;1838;50.742;7.158;2024-02-15T02:50:03;9.23;;;4.03;;
3643;SDS011;1838;50.742;7.158;2024-02-15T02:52:29;4.00;;;3.37;;
3643;SDS011;1838;50.742;7.158;2024-02-15T02:54:54;9.30;;;4.40;;
3643;SDS011;1838;50.742;7.158;2024-02-15T02:57:20;7.73;;;4.53;;
3643;SDS011;1838;50.742;7.158;2024-02-15T02:59:46;8.27;;;5.77;;
3643;SDS011;1838;50.742;7.158;2024-02-15T03:02:12;8.17;;;6.33;;
3643;SDS011;1838;50.742;7.158;2024-02-15T03:04:38;9.83;;;5.90;;
3643;SDS011;1838;50.742;7.158;2024-02-15T03:07:05;9.13;;;6.13;;
3643;SDS011;1838;50.742;7.158;2024-02-15T03:09:30;8.63;;;5.53;;
3643;SDS011;1838;50.742;7.158;2024-02-15T03:11:56;11.70;;;5.20;;
3643;SDS011;1838;50.742;7.158;2024-02-15T03:14:22;7.57;;;4.70;;
3643;SDS011;1838;50.742;7.158;2024-02-15T03:16:47;16.27;;;8.07;;
3643;SDS011;1838;50.742;7.158;2024-02-15T03:19:13;9.90;;;8.90;;
3643;SDS011;1838;50.742;7.158;2024-02-15T03:21:38;17.93;;;10.70;;
3643;SDS011;1838;50.742;7.158;2024-02-15T03:24:04;11.80;;;10.47;;
3643;SDS011;1838;50.742;7.158;2024-02-15T03:26:30;10.27;;;9.23;;
3643;SDS011;1838;50.742;7.158;2024-02-15T03:29:03;11.20;;;7.57;;
3643;SDS011;1838;50.742;7.158;2024-02-15T03:31:29;8.30;;;7.47;;
3643;SDS011;1838;50.742;7.158;2024-02-15T03:33:58;10.43;;;9.03;;
3643;SDS011;1838;50.742;7.158;2024-02-15T03:36:24;14.13;;;9.00;;
3643;SDS011;1838;50.742;7.158;2024-02-15T03:38:49;8.13;;;7.40;;
3643;SDS011;1838;50.742;7.158;2024-02-15T03:41:15;6.20;;;5.33;;
3643;SDS011;1838;50.742;7.158;2024-02-15T03:43:40;10.93;;;4.80;;
3643;SDS011;1838;50.742;7.158;2024-02-15T03:46:06;6.20;;;4.60;;
3643;SDS011;1838;50.742;7.158;2024-02-15T03:48:37;10.60;;;5.20;;
3643;SDS011;1838;50.742;7.158;2024-02-15T03:51:02;11.27;;;4.50;;
3643;SDS011;1838;50.742;7.158;2024-02-15T03:53:28;10.60;;;4.80;;
3643;SDS011;1838;50.742;7.158;2024-02-15T03:55:56;8.40;;;4.40;;
3643;SDS011;1838;50.742;7.158;2024-02-15T03:58:21;5.10;;;4.60;;
3643;SDS011;1838;50.742;7.158;2024-02-15T04:00:47;5.00;;;4.23;;
3643;SDS011;1838;50.742;7.158;2024-02-15T04:03:13;15.00;;;4.23;;
3643;SDS011;1838;50.742;7.158;2024-02-15T04:05:39;10.33;;;4.73;;
3643;SDS011;1838;50.742;7.158;2024-02-15T04:08:04;6.50;;;5.70;;
3643;SDS011;1838;50.742;7.158;2024-02-15T04:10:30;14.70;;;8.03;;
3643;SDS011;1838;50.742;7.158;2024-02-15T04:12:55;13.13;;;10.30;;
3643;SDS011;1838;50.742;7.158;2024-02-15T04:15:23;15.93;;;12.23;;
3643;SDS011;1838;50.742;7.158;2024-02-15T04:17:48;19.03;;;15.50;;
3643;SDS011;1838;50.742;7.158;2024-02-15T04:20:20;16.97;;;15.23;;
3643;SDS011;1838;50.742;7.158;2024-02-15T04:22:46;21.67;;;16.03;;
3643;SDS011;1838;50.742;7.158;2024-02-15T04:25:12;24.13;;;15.70;;
3643;SDS011;1838;50.742;7.158;2024-02-15T04:27:41;20.07;;;13.40;;
3643;SDS011;1838;50.742;7.158;2024-02-15T04:30:06;16.37;;;12.30;;
3643;SDS011;1838;50.742;7.158;2024-02-15T04:32:33;10.70;;;9.23;;
3643;SDS011;1838;50.742;7.158;2024-02-15T04:34:59;12.43;;;6.43;;
3643;SDS011;1838;50.742;7.158;2024-02-15T04:37:26;8.43;;;7.63;;
3643;SDS011;1838;50.742;7.158;2024-02-15T04:39:53;14.00;;;10.50;;
3643;SDS011;1838;50.742;7.158;2024-02-15T04:42:19;12.23;;;11.00;;
3643;SDS011;1838;50.742;7.158;2024-02-15T04:44:45;16.47;;;11.20;;
3643;SDS011;1838;50.742;7.158;2024-02-15T04:47:10;26.40;;;12.87;;
3643;SDS011;1838;50.742;7.158;2024-02-15T04:49:36;14.30;;;10.80;;
3643;SDS011;1838;50.742;7.158;2024-02-15T04:52:04;19.80;;;10.40;;
3643;SDS011;1838;50.742;7.158;2024-02-15T04:54:32;14.17;;;8.50;;
3643;SDS011;1838;50.742;7.158;2024-02-15T04:56:58;13.33;;;7.33;;
3643;SDS011;1838;50.742;7.158;2024-02-15T04:59:23;16.93;;;9.60;;
3643;SDS011;1838;50.742;7.158;2024-02-15T05:01:52;16.63;;;6.77;;
3643;SDS011;1838;50.742;7.158;2024-02-15T05:04:17;8.30;;;6.90;;
3643;SDS011;1838;50.742;7.158;2024-02-15T05:06:43;9.80;;;6.90;;
3643;SDS011;1838;50.742;7.158;2024-02-15T05:09:10;13.77;;;7.30;;
3643;SDS011;1838;50.742;7.158;2024-02-15T05:11:36;10.27;;;8.40;;
3643;SDS011;1838;50.742;7.158;2024-02-15T05:14:03;10.33;;;7.00;;
3643;SDS011;1838;50.742;7.158;2024-02-15T05:16:34;9.17;;;6.40;;
3643;SDS011;1838;50.742;7.158;2024-02-15T05:19:06;9.10;;;5.73;;
3643;SDS011;1838;50.742;7.158;2024-02-15T05:21:32;12.90;;;5.53;;
3643;SDS011;1838;50.742;7.158;2024-02-15T05:23:58;11.00;;;7.30;;
3643;SDS011;1838;50.742;7.158;2024-02-15T05:26:24;13.10;;;5.37;;
3643;SDS011;1838;50.742;7.158;2024-02-15T05:28:49;9.97;;;4.70;;
3643;SDS011;1838;50.742;7.158;2024-02-15T05:31:16;8.30;;;4.63;;
3643;SDS011;1838;50.742;7.158;2024-02-15T05:33:45;10.57;;;5.90;;
3643;SDS011;1838;50.742;7.158;2024-02-15T05:36:19;8.57;;;4.67;;
3643;SDS011;1838;50.742;7.158;2024-02-15T05:38:46;7.43;;;4.33;;
3643;SDS011;1838;50.742;7.158;2024-02-15T05:41:13;8.43;;;4.90;;
3643;SDS011;1838;50.742;7.158;2024-02-15T05:43:39;9.40;;;5.17;;
3643;SDS011;1838;50.742;7.158;2024-02-15T05:46:06;8.37;;;5.50;;
3643;SDS011;1838;50.742;7.158;2024-02-15T05:48:33;8.43;;;5.73;;
3643;SDS011;1838;50.742;7.158;2024-02-15T05:51:02;6.60;;;4.87;;
3643;SDS011;1838;50.742;7.158;2024-02-15T05:53:28;9.63;;;5.00;;
3643;SDS011;1838;50.742;7.158;2024-02-15T05:55:54;5.07;;;4.30;;
3643;SDS011;1838;50.742;7.158;2024-02-15T05:58:20;7.10;;;4.23;;
3643;SDS011;1838;50.742;7.158;2024-02-15T06:00:46;8.40;;;4.00;;
3643;SDS011;1838;50.742;7.158;2024-02-15T06:03:14;6.40;;;4.83;;
3643;SDS011;1838;50.742;7.158;2024-02-15T06:05:43;17.67;;;7.07;;
3643;SDS011;1838;50.742;7.158;2024-02-15T06:08:09;15.90;;;8.23;;
3643;SDS011;1838;50.742;7.158;2024-02-15T06:10:37;13.47;;;6.60;;
3643;SDS011;1838;50.742;7.158;2024-02-15T06:13:03;9.97;;;5.70;;
3643;SDS011;1838;50.742;7.158;2024-02-15T06:15:29;10.37;;;6.80;;
3643;SDS011;1838;50.742;7.158;2024-02-15T06:17:54;12.07;;;5.63;;
3643;SDS011;1838;50.742;7.158;2024-02-15T06:20:20;11.37;;;5.67;;
3643;SDS011;1838;50.742;7.158;2024-02-15T06:22:46;7.33;;;6.13;;
3643;SDS011;1838;50.742;7.158;2024-02-15T06:25:13;7.40;;;5.00;;
3643;SDS011;1838;50.742;7.158;2024-02-15T06:27:40;14.67;;;4.67;;
3643;SDS011;1838;50.742;7.158;2024-02-15T06:30:11;16.03;;;5.37;;
3643;SDS011;1838;50.742;7.158;2024-02-15T06:32:55;13.67;;;5.50;;
3643;SDS011;1838;50.742;7.158;2024-02-15T06:35:40;10.77;;;6.40;;
3643;SDS011;1838;50.742;7.158;2024-02-15T06:38:24;8.60;;;5.47;;
3643;SDS011;1838;50.742;7.158;2024-02-15T06:41:08;7.90;;;5.13;;
3643;SDS011;1838;50.742;7.158;2024-02-15T06:43:34;14.17;;;5.30;;
3643;SDS011;1838;50.742;7.158;2024-02-15T06:46:00;12.07;;;5.53;;
3643;SDS011;1838;50.742;7.158;2024-02-15T06:48:27;7.83;;;4.70;;
3643;SDS011;1838;50.742;7.158;2024-02-15T06:50:53;9.60;;;4.60;;
3643;SDS011;1838;50.742;7.158;2024-02-15T06:53:19;11.33;;;4.93;;
3643;SDS011;1838;50.742;7.158;2024-02-15T06:55:45;8.07;;;5.10;;
3643;SDS011;1838;50.742;7.158;2024-02-15T06:58:14;9.97;;;7.30;;
3643;SDS011;1838;50.742;7.158;2024-02-15T07:00:43;9.83;;;6.10;;
3643;SDS011;1838;50.742;7.158;2024-02-15T07:03:08;13.10;;;7.27;;
3643;SDS011;1838;50.742;7.158;2024-02-15T07:05:35;10.30;;;6.60;;
3643;SDS011;1838;50.742;7.158;2024-02-15T07:08:03;9.83;;;6.97;;
3643;SDS011;1838;50.742;7.158;2024-02-15T07:10:30;7.90;;;5.57;;
3643;SDS011;1838;50.742;7.158;2024-02-15T07:12:56;17.00;;;8.70;;
3643;SDS011;1838;50.742;7.158;2024-02-15T07:15:22;11.67;;;7.97;;
3643;SDS011;1838;50.742;7.158;2024-02-15T07:17:48;18.40;;;8.10;;
3643;SDS011;1838;50.742;7.158;2024-02-15T07:20:13;19.40;;;7.30;;
3643;SDS011;1838;50.742;7.158;2024-02-15T07:22:42;11.50;;;5.80;;
3643;SDS011;1838;50.742;7.158;2024-02-15T07:25:10;9.30;;;6.27;;
3643;SDS011;1838;50.742;7.158;2024-02-15T07:27:36;9.87;;;5.60;;
3643;SDS011;1838;50.742;7.158;2024-02-15T07:30:02;9.73;;;6.50;;
3643;SDS011;1838;50.742;7.158;2024-02-15T07:32:31;12.23;;;7.00;;
3643;SDS011;1838;50.742;7.158;2024-02-15T07:34:57;17.50;;;7.50;;
3643;SDS011;1838;50.742;7.158;2024-02-15T07:37:22;12.17;;;8.47;;
3643;SDS011;1838;50.742;7.158;2024-02-15T07:39:51;26.50;;;9.90;;
3643;SDS011;1838;50.742;7.158;2024-02-15T07:42:17;18.10;;;9.60;;
3643;SDS011;1838;50.742;7.158;2024-02-15T07:44:42;17.73;;;11.20;;
3643;SDS011;1838;50.742;7.158;2024-02-15T07:47:08;15.53;;;10.33;;
3643;SDS011;1838;50.742;7.158;2024-02-15T07:49:35;16.00;;;9.73;;
3643;SDS011;1838;50.742;7.158;2024-02-15T07:52:01;18.83;;;11.70;;
3643;SDS011;1838;50.742;7.158;2024-02-15T07:54:29;18.00;;;11.90;;
3643;SDS011;1838;50.742;7.158;2024-02-15T07:56:56;13.17;;;9.73;;
3643;SDS011;1838;50.742;7.158;2024-02-15T07:59:23;13.00;;;9.33;;
3643;SDS011;1838;50.742;7.158;2024-02-15T08:01:48;14.00;;;8.60;;
3643;SDS011;1838;50.742;7.158;2024-02-15T08:04:15;11.00;;;7.20;;
3643;SDS011;1838;50.742;7.158;2024-02-15T08:06:42;22.40;;;8.37;;
3643;SDS011;1838;50.742;7.158;2024-02-15T08:09:09;9.70;;;7.20;;
3643;SDS011;1838;50.742;7.158;2024-02-15T08:11:39;14.73;;;10.13;;
3643;SDS011;1838;50.742;7.158;2024-02-15T08:14:05;12.73;;;9.07;;
3643;SDS011;1838;50.742;7.158;2024-02-15T08:16:33;19.10;;;9.60;;
3643;SDS011;1838;50.742;7.158;2024-02-15T08:18:59;15.23;;;10.27;;
3643;SDS011;1838;50.742;7.158;2024-02-15T08:23:54;12.80;;;10.00;;
3643;SDS011;1838;50.742;7.158;2024-02-15T08:26:20;20.10;;;10.83;;
3643;SDS011;1838;50.742;7.158;2024-02-15T08:28:46;20.03;;;11.63;;
3643;SDS011;1838;50.742;7.158;2024-02-15T08:31:12;17.33;;;9.60;;
3643;SDS011;1838;50.742;7.158;2024-02-15T08:33:40;23.70;;;10.50;;
3643;SDS011;1838;50.742;7.158;2024-02-15T08:36:07;15.20;;;8.53;;
3643;SDS011;1838;50.742;7.158;2024-02-15T08:38:35;13.23;;;7.80;;
3643;SDS011;1838;50.742;7.158;2024-02-15T08:41:03;11.60;;;5.60;;
3643;SDS011;1838;50.742;7.158;2024-02-15T08:43:30;7.90;;;5.60;;
3643;SDS011;1838;50.742;7.158;2024-02-15T08:45:57;6.60;;;5.60;;
3643;SDS011;1838;50.742;7.158;2024-02-15T08:48:23;6.90;;;4.20;;
3643;SDS011;1838;50.742;7.158;2024-02-15T08:50:49;11.27;;;5.07;;
3643;SDS011;1838;50.742;7.158;2024-02-15T08:53:16;16.40;;;6.33;;
3643;SDS011;1838;50.742;7.158;2024-02-15T08:55:44;6.93;;;3.50;;
3643;SDS011;1838;50.742;7.158;2024-02-15T08:58:10;6.33;;;3.50;;
3643;SDS011;1838;50.742;7.158;2024-02-15T09:00:35;7.40;;;3.20;;
3643;SDS011;1838;50.742;7.158;2024-02-15T09:03:02;7.20;;;3.57;;
3643;SDS011;1838;50.742;7.158;2024-02-15T09:05:28;6.00;;;3.17;;
3643;SDS011;1838;50.742;7.158;2024-02-15T09:07:53;5.30;;;2.53;;
3643;SDS011;1838;50.742;7.158;2024-02-15T09:10:19;3.80;;;3.27;;
3643;SDS011;1838;50.742;7.158;2024-02-15T09:12:47;7.40;;;3.67;;
3643;SDS011;1838;50.742;7.158;2024-02-15T09:15:13;7.63;;;3.90;;
3643;SDS011;1838;50.742;7.158;2024-02-15T09:17:40;7.40;;;3.80;;
3643;SDS011;1838;50.742;7.158;2024-02-15T09:20:08;6.97;;;3.10;;
3643;SDS011;1838;50.742;7.158;2024-02-15T09:22:40;6.67;;;3.40;;
3643;SDS011;1838;50.742;7.158;2024-02-15T09:25:06;7.00;;;3.13;;
3643;SDS011;1838;50.742;7.158;2024-02-15T09:27:32;8.60;;;4.77;;
3643;SDS011;1838;50.742;7.158;2024-02-15T09:29:58;12.57;;;3.40;;
3643;SDS011;1838;50.742;7.158;2024-02-15T09:32:23;14.03;;;4.40;;
3643;SDS011;1838;50.742;7.158;2024-02-15T09:34:49;11.57;;;3.57;;
3643;SDS011;1838;50.742;7.158;2024-02-15T09:37:15;10.43;;;3.10;;
3643;SDS011;1838;50.742;7.158;2024-02-15T09:39:40;8.00;;;3.20;;
3643;SDS011;1838;50.742;7.158;2024-02-15T09:42:06;3.93;;;2.70;;
3643;SDS011;1838;50.742;7.158;2024-02-15T09:44:31;9.10;;;4.17;;
3643;SDS011;1838;50.742;7.158;2024-02-15T09:47:06;9.87;;;4.90;;
3643;SDS011;1838;50.742;7.158;2024-02-15T09:49:36;4.60;;;4.17;;
3643;SDS011;1838;50.742;7.158;2024-02-15T09:52:04;11.80;;;4.60;;
3643;SDS011;1838;50.742;7.158;2024-02-15T09:54:32;8.97;;;3.43;;
3643;SDS011;1838;50.742;7.158;2024-02-15T09:57:01;12.90;;;4.50;;
3643;SDS011;1838;50.742;7.158;2024-02-15T09:59:28;9.80;;;4.20;;
3643;SDS011;1838;50.742;7.158;2024-02-15T10:01:54;6.23;;;3.87;;
3643;SDS011;1838;50.742;7.158;2024-02-15T10:04:23;8.57;;;4.60;;
3643;SDS011;1838;50.742;7.158;2024-02-15T10:06:50;5.57;;;4.27;;
3643;SDS011;1838;50.742;7.158;2024-02-15T10:09:29;5.43;;;4.30;;
3643;SDS011;1838;50.742;7.158;2024-02-15T10:11:59;11.30;;;3.80;;
3643;SDS011;1838;50.742;7.158;2024-02-15T10:14:26;13.83;;;4.37;;
3643;SDS011;1838;50.742;7.158;2024-02-15T10:16:53;6.03;;;4.40;;
3643;SDS011;1838;50.742;7.158;2024-02-15T10:19:19;8.63;;;4.70;;
3643;SDS011;1838;50.742;7.158;2024-02-15T10:21:52;6.23;;;3.90;;
3643;SDS011;1838;50.742;7.158;2024-02-15T10:24:22;8.60;;;5.00;;
3643;SDS011;1838;50.742;7.158;2024-02-15T10:26:49;9.70;;;5.10;;
3643;SDS011;1838;50.742;7.158;2024-02-15T10:29:15;8.23;;;5.03;;
3643;SDS011;1838;50.742;7.158;2024-02-15T10:31:55;7.77;;;3.90;;
3643;SDS011;1838;50.742;7.158;2024-02-15T10:34:23;8.40;;;4.60;;
3643;SDS011;1838;50.742;7.158;2024-02-15T10:36:52;7.63;;;4.90;;
3643;SDS011;1838;50.742;7.158;2024-02-15T10:39:37;5.00;;;4.47;;
3643;SDS011;1838;50.742;7.158;2024-02-15T10:42:02;4.60;;;4.10;;
3643;SDS011;1838;50.742;7.158;2024-02-15T10:44:31;8.43;;;4.80;;
3643;SDS011;1838;50.742;7.158;2024-02-15T10:46:59;10.23;;;4.60;;
3643;SDS011;1838;50.742;7.158;2024-02-15T10:49:25;8.93;;;4.40;;
3643;SDS011;1838;50.742;7.158;2024-02-15T10:54:27;7.70;;;4.20;;
3643;SDS011;1838;50.742;7.158;2024-02-15T10:57:03;6.77;;;4.73;;
3643;SDS011;1838;50.742;7.158;2024-02-15T10:59:31;9.00;;;4.03;;
3643;SDS011;1838;50.742;7.158;2024-02-15T11:02:01;4.90;;;3.93;;
3643;SDS011;1838;50.742;7.158;2024-02-15T11:04:45;7.73;;;5.10;;
3643;SDS011;1838;50.742;7.158;2024-02-15T11:07:14;8.37;;;5.03;;
3643;SDS011;1838;50.742;7.158;2024-02-15T11:09:40;6.77;;;3.97;;
3643;SDS011;1838;50.742;7.158;2024-02-15T11:12:07;7.83;;;5.23;;
3643;SDS011;1838;50.742;7.158;2024-02-15T11:14:32;6.53;;;4.37;;
3643;SDS011;1838;50.742;7.158;2024-02-15T11:17:00;7.13;;;4.83;;
3643;SDS011;1838;50.742;7.158;2024-02-15T11:27:24;5.20;;;4.70;;
3643;SDS011;1838;50.742;7.158;2024-02-15T11:35:03;5.20;;;4.40;;
3643;SDS011;1838;50.742;7.158;2024-02-15T11:40:23;5.30;;;4.20;;
3643;SDS011;1838;50.742;7.158;2024-02-15T11:42:55;8.20;;;4.10;;
3643;SDS011;1838;50.742;7.158;2024-02-15T11:45:25;8.23;;;4.13;;
3643;SDS011;1838;50.742;7.158;2024-02-15T11:47:55;7.13;;;3.53;;
3643;SDS011;1838;50.742;7.158;2024-02-15T11:50:21;8.23;;;3.83;;
3643;SDS011;1838;50.742;7.158;2024-02-15T11:52:48;5.23;;;3.60;;
3643;SDS011;1838;50.742;7.158;2024-02-15T11:55:17;7.07;;;3.40;;
3643;SDS011;1838;50.742;7.158;2024-02-15T11:57:56;5.30;;;3.17;;
3643;SDS011;1838;50.742;7.158;2024-02-15T12:00:34;5.63;;;3.30;;
3643;SDS011;1838;50.742;7.158;2024-02-15T12:03:19;7.83;;;3.10;;
3643;SDS011;1838;50.742;7.158;2024-02-15T12:06:03;4.83;;;3.43;;
3643;SDS011;1838;50.742;7.158;2024-02-15T12:08:48;3.53;;;2.97;;
3643;SDS011;1838;50.742;7.158;2024-02-15T12:11:34;6.40;;;3.90;;
3643;SDS011;1838;50.742;7.158;2024-02-15T12:14:18;7.53;;;3.53;;
3643;SDS011;1838;50.742;7.158;2024-02-15T12:17:06;4.47;;;3.20;;
3643;SDS011;1838;50.742;7.158;2024-02-15T12:19:59;6.03;;;3.80;;
3643;SDS011;1838;50.742;7.158;2024-02-15T12:22:32;7.30;;;4.00;;
3643;SDS011;1838;50.742;7.158;2024-02-15T12:25:05;10.33;;;3.20;;
3643;SDS011;1838;50.742;7.158;2024-02-15T12:27:45;4.53;;;3.40;;
3643;SDS011;1838;50.742;7.158;2024-02-15T12:30:15;19.40;;;3.93;;
3643;SDS011;1838;50.742;7.158;2024-02-15T12:32:45;5.93;;;3.20;;
3643;SDS011;1838;50.742;7.158;2024-02-15T12:35:13;5.23;;;3.80;;
3643;SDS011;1838;50.742;7.158;2024-02-15T12:37:44;7.17;;;3.67;;
3643;SDS011;1838;50.742;7.158;2024-02-15T12:40:11;5.00;;;3.67;;
3643;SDS011;1838;50.742;7.158;2024-02-15T12:42:44;9.20;;;4.13;;
3643;SDS011;1838;50.742;7.158;2024-02-15T12:45:30;3.97;;;3.47;;
3643;SDS011;1838;50.742;7.158;2024-02-15T12:47:56;7.00;;;4.00;;
3643;SDS011;1838;50.742;7.158;2024-02-15T12:50:29;5.63;;;3.30;;
3643;SDS011;1838;50.742;7.158;2024-02-15T12:52:55;4.70;;;3.47;;
3643;SDS011;1838;50.742;7.158;2024-02-15T12:55:26;4.50;;;2.50;;
3643;SDS011;1838;50.742;7.158;2024-02-15T12:57:53;4.40;;;3.10;;
3643;SDS011;1838;50.742;7.158;2024-02-15T13:00:22;12.13;;;2.47;;
3643;SDS011;1838;50.742;7.158;2024-02-15T13:02:53;6.43;;;2.60;;
3643;SDS011;1838;50.742;7.158;2024-02-15T13:05:20;5.50;;;2.90;;
3643;SDS011;1838;50.742;7.158;2024-02-15T13:07:50;5.50;;;3.57;;
3643;SDS011;1838;50.742;7.158;2024-02-15T13:10:16;4.33;;;3.00;;
3643;SDS011;1838;50.742;7.158;2024-02-15T13:12:43;6.47;;;3.50;;
3643;SDS011;1838;50.742;7.158;2024-02-15T13:15:10;3.60;;;2.77;;
3643;SDS011;1838;50.742;7.158;2024-02-15T13:17:39;9.53;;;2.77;;
3643;SDS011;1838;50.742;7.158;2024-02-15T13:20:14;4.50;;;2.13;;
3643;SDS011;1838;50.742;7.158;2024-02-15T13:22:40;7.40;;;3.03;;
3643;SDS011;1838;50.742;7.158;2024-02-15T13:25:08;3.40;;;3.10;;
3643;SDS011;1838;50.742;7.158;2024-02-15T13:27:34;3.30;;;2.77;;
3643;SDS011;1838;50.742;7.158;2024-02-15T13:30:06;3.10;;;2.80;;
3643;SDS011;1838;50.742;7.158;2024-02-15T13:32:39;4.50;;;3.17;;
3643;SDS011;1838;50.742;7.158;2024-02-15T13:35:08;5.53;;;3.10;;
3643;SDS011;1838;50.742;7.158;2024-02-15T13:37:45;8.23;;;3.30;;
3643;SDS011;1838;50.742;7.158;2024-02-15T13:40:12;16.83;;;2.77;;
3643;SDS011;1838;50.742;7.158;2024-02-15T13:42:44;6.53;;;2.90;;
3643;SDS011;1838;50.742;7.158;2024-02-15T13:45:21;2.20;;;1.80;;
3643;SDS011;1838;50.742;7.158;2024-02-15T13:47:54;5.90;;;2.20;;
3643;SDS011;1838;50.742;7.158;2024-02-15T13:50:21;4.00;;;1.90;;
3643;SDS011;1838;50.742;7.158;2024-02-15T13:52:46;3.07;;;1.90;;
3643;SDS011;1838;50.742;7.158;2024-02-15T13:55:13;3.63;;;1.70;;
3643;SDS011;1838;50.742;7.158;2024-02-15T13:57:43;2.90;;;2.10;;
3643;SDS011;1838;50.742;7.158;2024-02-15T14:00:12;2.83;;;1.47;;
3643;SDS011;1838;50.742;7.158;2024-02-15T14:02:46;14.13;;;2.40;;
3643;SDS011;1838;50.742;7.158;2024-02-15T14:05:15;5.03;;;1.90;;
3643;SDS011;1838;50.742;7.158;2024-02-15T14:07:45;4.90;;;1.87;;
3643;SDS011;1838;50.742;7.158;2024-02-15T14:10:11;4.47;;;1.77;;
3643;SDS011;1838;50.742;7.158;2024-02-15T14:12:38;9.23;;;1.87;;
3643;SDS011;1838;50.742;7.158;2024-02-15T14:15:04;5.67;;;1.60;;
3643;SDS011;1838;50.742;7.158;2024-02-15T14:17:31;2.23;;;1.30;;
3643;SDS011;1838;50.742;7.158;2024-02-15T14:19:56;4.80;;;1.80;;
3643;SDS011;1838;50.742;7.158;2024-02-15T14:22:23;8.23;;;2.27;;
3643;SDS011;1838;50.742;7.158;2024-02-15T14:24:49;4.80;;;2.03;;
3643;SDS011;1838;50.742;7.158;2024-02-15T14:27:15;4.77;;;1.80;;
3643;SDS011;1838;50.742;7.158;2024-02-15T14:29:40;12.17;;;2.27;;
3643;SDS011;1838;50.742;7.158;2024-02-15T14:32:26;3.47;;;1.80;;
3643;SDS011;1838;50.742;7.158;2024-02-15T14:35:10;3.33;;;1.90;;
3643;SDS011;1838;50.742;7.158;2024-02-15T14:37:36;4.70;;;1.80;;
3643;SDS011;1838;50.742;7.158;2024-02-15T14:40:05;3.10;;;1.80;;
3643;SDS011;1838;50.742;7.158;2024-02-15T14:42:32;3.40;;;1.53;;
3643;SDS011;1838;50.742;7.158;2024-02-15T14:44:58;3.20;;;1.73;;
3643;SDS011;1838;50.742;7.158;2024-02-15T14:47:25;4.10;;;1.80;;
3643;SDS011;1838;50.742;7.158;2024-02-15T14:49:50;2.93;;;1.63;;
3643;SDS011;1838;50.742;7.158;2024-02-15T14:52:16;6.30;;;2.50;;
3643;SDS011;1838;50.742;7.158;2024-02-15T14:54:43;4.13;;;1.70;;
3643;SDS011;1838;50.742;7.158;2024-02-15T14:57:08;6.57;;;2.07;;
3643;SDS011;1838;50.742;7.158;2024-02-15T14:59:34;5.07;;;1.70;;
3643;SDS011;1838;50.742;7.158;2024-02-15T15:02:00;2.83;;;1.80;;
3643;SDS011;1838;50.742;7.158;2024-02-15T15:04:33;4.47;;;1.80;;
3643;SDS011;1838;50.742;7.158;2024-02-15T15:07:12;3.03;;;1.93;;
3643;SDS011;1838;50.742;7.158;2024-02-15T15:09:56;4.17;;;2.03;;
3643;SDS011;1838;50.742;7.158;2024-02-15T15:12:40;2.60;;;2.07;;
3643;SDS011;1838;50.742;7.158;2024-02-15T15:15:10;3.10;;;1.97;;
3643;SDS011;1838;50.742;7.158;2024-02-15T15:17:39;4.60;;;2.03;;
3643;SDS011;1838;50.742;7.158;2024-02-15T15:20:05;5.73;;;2.07;;
3643;SDS011;1838;50.742;7.158;2024-02-15T15:22:33;4.67;;;2.70;;
3643;SDS011;1838;50.742;7.158;2024-02-15T15:24:59;4.87;;;1.90;;
3643;SDS011;1838;50.742;7.158;2024-02-15T15:27:34;3.27;;;2.10;;
3643;SDS011;1838;50.742;7.158;2024-02-15T15:30:02;4.10;;;1.50;;
3643;SDS011;1838;50.742;7.158;2024-02-15T15:32:28;3.67;;;2.03;;
3643;SDS011;1838;50.742;7.158;2024-02-15T15:34:55;3.70;;;2.57;;
3643;SDS011;1838;50.742;7.158;2024-02-15T15:37:26;5.23;;;2.13;;